Time;durP1;ratioP1;P1;durP2;ratioP2;P2;SDS_P1;SDS_P2;PMS_P1;PMS_P2;Temp;Humidity;BMP_temperature;BMP_pressure;BME280_temperature;BME280_humidity;BME280_pressure;Samples;Min_cycle;Max_cycle;Signal;HPM_P1;HPM_P2
2023/01/19 00:00:25;;;;;;;14.27;12.73;;;2.80;99.90;;;;;;7369229;19;20018;-58
2023/01/19 00:02:55;;;;;;;16.00;12.30;;;2.80;99.90;;;;;;7369245;19;20018;-59
2023/01/19 00:05:22;;;;;;;11.85;10.55;;;2.80;99.90;;;;;;7373962;19;20014;-59
2023/01/19 00:07:48;;;;;;;13.30;9.43;;;2.80;99.90;;;;;;7367263;19;20026;-58
2023/01/19 00:10:15;;;;;;;12.35;9.15;;;2.90;99.90;;;;;;7369193;19;20022;-59
2023/01/19 00:12:43;;;;;;;11.07;8.43;;;2.90;99.90;;;;;;7364681;19;20090;-58
2023/01/19 00:15:09;;;;;;;11.15;8.70;;;2.80;99.90;;;;;;7371020;19;20022;-59
2023/01/19 00:17:36;;;;;;;9.90;6.90;;;2.80;99.90;;;;;;7369318;19;20899;-59
2023/01/19 00:20:03;;;;;;;8.43;5.97;;;2.80;99.90;;;;;;7368019;19;20046;-58
2023/01/19 00:22:29;;;;;;;8.00;5.95;;;2.80;99.90;;;;;;7370567;19;20007;-58
2023/01/19 00:24:55;;;;;;;5.50;4.65;;;2.70;99.90;;;;;;7364443;19;20580;-58
2023/01/19 00:27:22;;;;;;;6.78;4.60;;;2.70;99.90;;;;;;7372147;19;20014;-59
2023/01/19 00:29:48;;;;;;;7.65;5.00;;;2.60;99.90;;;;;;7371348;19;21059;-58
2023/01/19 00:32:19;;;;;;;7.60;5.32;;;2.60;99.90;;;;;;7369490;19;20019;-59
2023/01/19 00:34:48;;;;;;;6.78;5.07;;;2.60;99.90;;;;;;7361180;19;20021;-59
2023/01/19 00:37:16;;;;;;;7.63;5.65;;;2.60;99.90;;;;;;7369940;19;20097;-59
2023/01/19 00:39:42;;;;;;;7.03;5.85;;;2.60;99.90;;;;;;7372080;19;20022;-58
2023/01/19 00:44:57;;;;;;;5.25;4.40;;;2.50;99.90;;;;;;7367283;19;20021;-58
2023/01/19 00:47:24;;;;;;;5.15;4.40;;;2.50;99.90;;;;;;7369728;19;20022;-59
2023/01/19 00:49:50;;;;;;;5.60;4.63;;;2.40;99.90;;;;;;7364534;19;20015;-59
2023/01/19 00:52:18;;;;;;;5.95;4.03;;;2.30;99.90;;;;;;7371680;19;20502;-58
2023/01/19 00:54:45;;;;;;;7.07;4.60;;;2.30;99.90;;;;;;7369083;19;20019;-59
2023/01/19 00:57:12;;;;;;;5.03;4.28;;;2.30;99.90;;;;;;7369483;19;20015;-63
2023/01/19 00:59:38;;;;;;;6.47;4.90;;;2.30;99.90;;;;;;7364941;19;20844;-63
2023/01/19 01:02:06;;;;;;;6.25;4.43;;;2.30;99.90;;;;;;7363142;19;20752;-63
2023/01/19 01:04:32;;;;;;;4.80;4.22;;;2.30;99.90;;;;;;7368908;19;20533;-59
2023/01/19 01:06:59;;;;;;;6.95;4.32;;;2.30;99.90;;;;;;7370283;19;20072;-58
2023/01/19 01:09:26;;;;;;;5.90;4.22;;;2.30;99.90;;;;;;7363330;19;20019;-59
2023/01/19 01:11:52;;;;;;;6.03;4.55;;;2.30;99.90;;;;;;7368493;19;20026;-58
2023/01/19 01:14:19;;;;;;;5.95;4.60;;;2.20;99.90;;;;;;7365869;19;20070;-58
2023/01/19 01:16:45;;;;;;;6.50;5.15;;;2.20;99.90;;;;;;7369735;19;20048;-63
2023/01/19 01:19:12;;;;;;;7.30;6.22;;;2.20;99.90;;;;;;7365715;19;20015;-59
2023/01/19 01:21:39;;;;;;;8.70;7.70;;;2.20;99.90;;;;;;7364830;19;20377;-58
2023/01/19 01:24:06;;;;;;;10.43;8.27;;;2.20;99.90;;;;;;7369400;19;20014;-59
2023/01/19 01:26:32;;;;;;;11.25;8.82;;;2.20;99.90;;;;;;7371125;19;20055;-58
2023/01/19 01:28:58;;;;;;;11.80;9.77;;;2.20;99.90;;;;;;7370622;19;20021;-59
2023/01/19 01:31:25;;;;;;;12.93;11.02;;;2.20;99.90;;;;;;7366976;19;20464;-59
2023/01/19 01:33:51;;;;;;;14.25;11.63;;;2.10;99.90;;;;;;7367508;19;20434;-59
2023/01/19 01:36:18;;;;;;;13.65;11.07;;;2.20;99.90;;;;;;7364089;19;20018;-58
2023/01/19 01:38:46;;;;;;;14.23;11.82;;;2.10;99.90;;;;;;7366965;19;20025;-58
2023/01/19 01:41:13;;;;;;;16.70;13.40;;;2.20;99.90;;;;;;7367458;19;20059;-59
2023/01/19 01:43:52;;;;;;;17.05;14.77;;;2.10;99.90;;;;;;7372672;19;20584;-59
2023/01/19 01:46:19;;;;;;;17.40;14.43;;;2.20;99.90;;;;;;7375631;19;20485;-58
2023/01/19 01:48:58;;;;;;;15.85;14.05;;;2.20;99.90;;;;;;7374028;19;20019;-58
2023/01/19 01:51:37;;;;;;;16.15;13.68;;;2.20;99.90;;;;;;7373287;19;20362;-59
2023/01/19 01:54:12;;;;;;;17.65;15.23;;;2.20;99.90;;;;;;7371012;19;20023;-58
2023/01/19 01:56:45;;;;;;;20.70;14.38;;;2.20;99.90;;;;;;7370592;19;20035;-59
2023/01/19 01:59:24;;;;;;;19.70;15.63;;;2.20;99.90;;;;;;7368633;19;20033;-63
2023/01/19 02:04:41;;;;;;;19.77;16.35;;;2.20;99.90;;;;;;7369204;19;20157;-58
2023/01/19 02:15:31;;;;;;;21.92;19.45;;;2.30;99.90;;;;;;7366568;19;20570;-63
2023/01/19 02:18:02;;;;;;;22.30;19.52;;;2.30;99.90;;;;;;7368453;19;20018;-63
2023/01/19 02:20:31;;;;;;;23.90;19.83;;;2.30;99.90;;;;;;7363873;19;20454;-64
2023/01/19 02:23:02;;;;;;;24.15;21.55;;;2.30;99.90;;;;;;7364729;19;20019;-64
2023/01/19 02:25:28;;;;;;;28.15;22.27;;;2.30;99.90;;;;;;7368575;19;20549;-64
2023/01/19 02:27:55;;;;;;;26.88;23.83;;;2.30;99.90;;;;;;7365822;19;20018;-64
2023/01/19 02:30:22;;;;;;;27.17;23.67;;;2.30;99.90;;;;;;7365221;19;20767;-65
2023/01/19 02:32:48;;;;;;;29.45;25.40;;;2.30;99.90;;;;;;7366639;19;20894;-63
2023/01/19 02:35:15;;;;;;;32.17;24.95;;;2.30;99.90;;;;;;7364961;19;20018;-63
2023/01/19 02:37:43;;;;;;;27.73;24.23;;;2.30;99.90;;;;;;7369380;19;20022;-64
2023/01/19 02:40:12;;;;;;;30.10;24.70;;;2.30;99.90;;;;;;7367825;19;20014;-58
2023/01/19 02:42:44;;;;;;;32.17;26.10;;;2.30;99.90;;;;;;7369460;19;20030;-63
2023/01/19 02:45:13;;;;;;;30.48;24.85;;;2.40;99.90;;;;;;7367156;19;20441;-64
2023/01/19 02:47:44;;;;;;;29.20;23.50;;;2.40;99.90;;;;;;7368036;19;20086;-63
2023/01/19 02:50:41;;;;;;;28.85;23.35;;;2.30;99.90;;;;;;7364020;19;20014;-63
2023/01/19 02:53:31;;;;;;;28.73;23.40;;;2.40;99.90;;;;;;7364675;19;20025;-64
2023/01/19 02:56:23;;;;;;;29.27;22.95;;;2.40;99.90;;;;;;7363713;19;20049;-59
2023/01/19 02:58:58;;;;;;;27.60;20.83;;;2.40;99.90;;;;;;7366280;19;20385;-59
2023/01/19 03:01:40;;;;;;;24.85;20.63;;;2.40;99.90;;;;;;7368782;19;20565;-59
2023/01/19 03:04:33;;;;;;;26.75;21.48;;;2.50;99.90;;;;;;7361960;19;20448;-58
2023/01/19 03:07:05;;;;;;;25.05;21.63;;;2.50;99.90;;;;;;7366191;19;20086;-59
2023/01/19 03:09:48;;;;;;;25.83;21.55;;;2.50;99.90;;;;;;7365808;19;20030;-58
2023/01/19 03:12:19;;;;;;;25.38;20.83;;;2.50;99.90;;;;;;7364038;19;20121;-59
2023/01/19 03:14:47;;;;;;;26.10;21.77;;;2.50;99.90;;;;;;7367563;19;20519;-58
2023/01/19 03:17:16;;;;;;;27.55;22.90;;;2.50;99.90;;;;;;7368517;19;20018;-57
2023/01/19 03:19:49;;;;;;;28.83;23.60;;;2.40;99.90;;;;;;7373331;19;20022;-63
2023/01/19 03:22:24;;;;;;;24.98;21.98;;;2.40;99.90;;;;;;7372097;19;20018;-64
2023/01/19 03:24:58;;;;;;;25.35;21.30;;;2.40;99.90;;;;;;7375826;19;20022;-64
2023/01/19 03:27:28;;;;;;;21.45;19.25;;;2.40;99.90;;;;;;7373960;19;20022;-63
2023/01/19 03:30:00;;;;;;;24.58;21.98;;;2.30;99.90;;;;;;7370596;19;20029;-63
2023/01/19 03:32:39;;;;;;;22.63;19.10;;;2.30;99.90;;;;;;7372548;19;20022;-63
2023/01/19 03:35:12;;;;;;;22.45;20.05;;;2.30;99.90;;;;;;7371272;19;20023;-63
2023/01/19 03:37:42;;;;;;;22.05;19.80;;;2.20;99.90;;;;;;7372931;19;20026;-63
2023/01/19 03:40:09;;;;;;;18.90;16.90;;;2.20;99.90;;;;;;7369197;19;20760;-63
2023/01/19 03:42:37;;;;;;;20.52;18.35;;;2.10;99.90;;;;;;7370299;19;20038;-64
2023/01/19 03:45:05;;;;;;;20.75;18.52;;;2.10;99.90;;;;;;7371153;19;20121;-58
2023/01/19 03:47:32;;;;;;;20.85;18.65;;;2.10;99.90;;;;;;7372761;19;20022;-58
2023/01/19 03:50:03;;;;;;;19.83;17.70;;;2.10;99.90;;;;;;7369782;19;20022;-59
2023/01/19 03:52:34;;;;;;;22.33;18.00;;;2.10;99.90;;;;;;7375544;19;20025;-64
2023/01/19 03:55:03;;;;;;;20.42;17.45;;;2.10;99.90;;;;;;7371541;19;20447;-58
2023/01/19 03:57:30;;;;;;;20.38;15.50;;;2.20;99.90;;;;;;7373487;19;20014;-63
2023/01/19 03:59:56;;;;;;;14.90;12.70;;;2.20;99.90;;;;;;7369705;19;20019;-64
2023/01/19 04:02:23;;;;;;;14.18;12.25;;;2.20;99.90;;;;;;7370296;19;20481;-64
2023/01/19 04:04:49;;;;;;;15.57;12.48;;;2.20;99.90;;;;;;7367415;19;20022;-63
2023/01/19 04:07:15;;;;;;;14.68;12.63;;;2.20;99.90;;;;;;7369456;19;20058;-63
2023/01/19 04:09:43;;;;;;;14.13;11.55;;;2.20;99.90;;;;;;7367430;19;20055;-64
2023/01/19 04:12:09;;;;;;;14.10;11.25;;;2.20;99.90;;;;;;7366323;19;20519;-64
2023/01/19 04:14:35;;;;;;;12.20;9.93;;;2.20;99.90;;;;;;7361575;19;20105;-63
2023/01/19 04:17:02;;;;;;;13.20;10.50;;;2.20;99.90;;;;;;7366429;19;20496;-64
2023/01/19 04:19:28;;;;;;;15.02;11.32;;;2.20;99.90;;;;;;7368200;19;20368;-64
2023/01/19 04:21:55;;;;;;;14.02;10.63;;;2.10;99.90;;;;;;7367898;19;20022;-63
2023/01/19 04:24:22;;;;;;;12.00;9.75;;;2.10;99.90;;;;;;7365305;19;20021;-63
2023/01/19 04:26:52;;;;;;;13.60;10.18;;;2.10;99.90;;;;;;7362869;19;20023;-63
2023/01/19 04:29:19;;;;;;;12.90;9.50;;;2.10;99.90;;;;;;7366925;19;20016;-63
2023/01/19 04:31:45;;;;;;;11.32;9.48;;;2.10;99.90;;;;;;7365669;19;20018;-63
2023/01/19 04:34:14;;;;;;;16.60;11.90;;;2.10;99.90;;;;;;7363778;19;20018;-63
2023/01/19 04:36:41;;;;;;;15.90;11.48;;;2.10;99.90;;;;;;7367142;19;20082;-63
2023/01/19 04:39:08;;;;;;;14.57;11.30;;;2.10;99.90;;;;;;7368735;19;20031;-64
2023/01/19 04:41:34;;;;;;;13.38;10.35;;;2.10;99.90;;;;;;7365449;19;20023;-64
2023/01/19 04:44:00;;;;;;;15.05;9.93;;;2.10;99.90;;;;;;7363981;19;20014;-64
2023/01/19 04:46:26;;;;;;;13.98;10.07;;;2.10;99.90;;;;;;7367475;19;20014;-64
2023/01/19 04:48:52;;;;;;;12.50;8.73;;;2.20;99.90;;;;;;7367762;19;20098;-63
2023/01/19 04:51:19;;;;;;;12.18;7.78;;;2.20;99.90;;;;;;7366755;19;20491;-59
2023/01/19 04:53:45;;;;;;;13.48;8.07;;;2.30;99.90;;;;;;7366708;19;20046;-63
2023/01/19 04:56:11;;;;;;;10.65;7.43;;;2.30;99.90;;;;;;7362246;19;20014;-64
2023/01/19 04:58:38;;;;;;;12.80;8.10;;;2.40;99.90;;;;;;7368197;19;20453;-64
2023/01/19 05:01:08;;;;;;;12.77;7.97;;;2.40;99.90;;;;;;7363998;19;20477;-64
2023/01/19 05:03:34;;;;;;;12.60;7.25;;;2.40;99.90;;;;;;7370046;19;20018;-59
2023/01/19 05:06:01;;;;;;;12.10;7.38;;;2.50;99.90;;;;;;7366658;19;20029;-64
2023/01/19 05:08:27;;;;;;;12.60;7.00;;;2.50;99.90;;;;;;7366372;19;20021;-63
2023/01/19 05:10:56;;;;;;;11.27;7.38;;;2.50;99.90;;;;;;7372010;19;20014;-64
2023/01/19 05:13:22;;;;;;;16.08;7.40;;;2.60;99.90;;;;;;7368304;19;20033;-59
2023/01/19 05:15:49;;;;;;;12.95;7.70;;;2.60;99.90;;;;;;7369437;19;20053;-64
2023/01/19 05:18:15;;;;;;;13.52;8.60;;;2.60;99.90;;;;;;7366057;19;20366;-64
2023/01/19 05:20:41;;;;;;;13.88;7.88;;;2.70;99.90;;;;;;7377543;19;20492;-58
2023/01/19 05:23:08;;;;;;;15.30;8.77;;;2.70;99.90;;;;;;7377758;19;20018;-59
2023/01/19 05:25:34;;;;;;;13.82;8.07;;;2.70;99.90;;;;;;7375261;19;20014;-63
2023/01/19 05:28:01;;;;;;;19.33;9.63;;;2.70;99.90;;;;;;7363866;19;20043;-64
2023/01/19 05:30:28;;;;;;;12.10;7.47;;;2.70;99.90;;;;;;7370734;19;20019;-64
2023/01/19 05:32:54;;;;;;;14.23;5.38;;;2.80;99.90;;;;;;7375486;19;20107;-64
2023/01/19 05:35:21;;;;;;;13.27;5.70;;;3.00;99.90;;;;;;7369355;19;20653;-64
2023/01/19 05:37:47;;;;;;;15.25;5.78;;;3.00;99.90;;;;;;7372637;19;20015;-64
2023/01/19 05:40:14;;;;;;;14.23;6.18;;;3.10;99.90;;;;;;7369065;19;20026;-64
2023/01/19 05:42:40;;;;;;;14.23;6.18;;;3.10;99.90;;;;;;7374715;19;20025;-64
2023/01/19 05:45:07;;;;;;;12.00;5.10;;;3.10;99.90;;;;;;7370129;19;20029;-64
2023/01/19 05:47:33;;;;;;;12.38;5.43;;;3.10;99.90;;;;;;7374428;19;20143;-63
2023/01/19 05:50:00;;;;;;;10.52;4.82;;;3.10;99.90;;;;;;7369861;19;20040;-64
2023/01/19 05:52:27;;;;;;;13.18;4.65;;;3.00;99.90;;;;;;7372443;19;20018;-64
2023/01/19 05:54:54;;;;;;;10.35;3.78;;;3.10;99.90;;;;;;7371843;19;20019;-64
2023/01/19 05:57:21;;;;;;;11.07;3.28;;;3.10;99.90;;;;;;7372976;19;20045;-64
2023/01/19 05:59:47;;;;;;;10.00;2.97;;;3.20;99.90;;;;;;7367935;19;20018;-64
2023/01/19 06:02:13;;;;;;;7.55;2.20;;;3.20;99.90;;;;;;7370414;19;20048;-64
2023/01/19 06:04:40;;;;;;;7.00;3.25;;;3.20;99.90;;;;;;7371390;19;20019;-59
2023/01/19 06:07:06;;;;;;;10.85;2.08;;;3.20;99.90;;;;;;7370576;19;20030;-58
2023/01/19 06:09:33;;;;;;;14.30;2.67;;;3.20;99.90;;;;;;7374281;19;20350;-60
2023/01/19 06:12:00;;;;;;;12.57;2.20;;;3.20;99.90;;;;;;7374107;19;20392;-64
2023/01/19 06:14:26;;;;;;;10.52;1.92;;;3.10;99.90;;;;;;7367565;19;20584;-64
2023/01/19 06:16:53;;;;;;;12.43;2.28;;;3.20;99.90;;;;;;7367729;19;20427;-59
2023/01/19 06:19:19;;;;;;;11.95;1.75;;;3.20;99.90;;;;;;7371225;19;20014;-64
2023/01/19 06:21:50;;;;;;;6.32;1.50;;;3.10;99.90;;;;;;7371183;19;20015;-59
2023/01/19 06:24:18;;;;;;;6.20;1.52;;;3.10;99.90;;;;;;7370449;19;20489;-59
2023/01/19 06:26:44;;;;;;;11.25;2.00;;;3.10;99.90;;;;;;7370037;19;20015;-64
2023/01/19 06:29:11;;;;;;;8.02;1.60;;;3.10;99.90;;;;;;7365477;19;20545;-63
2023/01/19 06:31:38;;;;;;;11.52;1.70;;;3.10;99.90;;;;;;7369481;19;20015;-64
2023/01/19 06:34:04;;;;;;;5.43;1.20;;;3.00;99.90;;;;;;7368852;19;20032;-64
2023/01/19 06:36:33;;;;;;;6.50;1.60;;;3.00;99.90;;;;;;7370856;19;20491;-64
2023/01/19 06:39:04;;;;;;;8.52;2.15;;;3.00;99.90;;;;;;7371722;19;20018;-59
2023/01/19 06:41:34;;;;;;;9.65;1.73;;;3.00;99.90;;;;;;7373050;19;20078;-59
2023/01/19 06:44:01;;;;;;;6.07;1.30;;;2.90;99.90;;;;;;7368277;19;20098;-59
2023/01/19 06:46:27;;;;;;;6.85;1.98;;;2.90;99.90;;;;;;7367915;19;20022;-63
2023/01/19 06:48:54;;;;;;;11.48;1.70;;;2.80;99.90;;;;;;7374066;19;20029;-63
2023/01/19 06:51:22;;;;;;;10.90;1.58;;;2.80;99.90;;;;;;7368886;19;20077;-59
2023/01/19 06:53:48;;;;;;;7.53;1.40;;;2.80;99.90;;;;;;7367745;19;20059;-64
2023/01/19 06:56:15;;;;;;;8.88;1.63;;;2.80;99.90;;;;;;7368258;19;20019;-64
2023/01/19 06:58:41;;;;;;;9.23;1.95;;;2.80;99.90;;;;;;7370733;19;20014;-59
2023/01/19 07:01:12;;;;;;;7.57;1.70;;;2.80;99.90;;;;;;7364320;19;20043;-60
2023/01/19 07:03:39;;;;;;;7.20;1.52;;;2.80;99.90;;;;;;7370091;19;20018;-63
2023/01/19 07:06:06;;;;;;;12.10;1.38;;;2.90;99.90;;;;;;7368385;19;20347;-64
2023/01/19 07:08:36;;;;;;;9.35;1.88;;;2.90;99.90;;;;;;7368123;19;20014;-64
2023/01/19 07:11:08;;;;;;;16.67;2.25;;;3.00;99.90;;;;;;7369218;19;20026;-64
2023/01/19 07:13:36;;;;;;;12.27;2.33;;;3.10;99.90;;;;;;7367521;19;20037;-63
2023/01/19 07:16:07;;;;;;;12.95;2.38;;;3.20;99.90;;;;;;7370257;19;20086;-64
2023/01/19 07:18:35;;;;;;;9.75;2.28;;;3.20;99.90;;;;;;7371118;19;20022;-64
2023/01/19 07:21:01;;;;;;;7.65;1.45;;;3.30;99.90;;;;;;7367510;19;20029;-64
2023/01/19 07:23:29;;;;;;;10.10;2.22;;;3.30;99.90;;;;;;7369832;19;20023;-63
2023/01/19 07:26:00;;;;;;;8.48;2.33;;;3.30;99.90;;;;;;7368140;19;20045;-63
2023/01/19 07:28:30;;;;;;;12.40;1.88;;;3.30;99.90;;;;;;7369770;19;20106;-63
2023/01/19 07:30:57;;;;;;;11.10;2.60;;;3.30;99.90;;;;;;7363976;19;20055;-64
2023/01/19 07:33:25;;;;;;;7.68;2.20;;;3.20;99.90;;;;;;7369346;19;20434;-64
2023/01/19 07:35:52;;;;;;;12.25;2.20;;;3.20;99.90;;;;;;7368030;19;20477;-64
2023/01/19 07:38:19;;;;;;;13.07;2.58;;;3.20;99.90;;;;;;7370269;19;20097;-64
2023/01/19 07:40:45;;;;;;;15.48;1.88;;;3.30;99.90;;;;;;7372306;19;20430;-64
2023/01/19 07:43:15;;;;;;;11.95;2.58;;;3.30;99.90;;;;;;7366841;19;20030;-63
2023/01/19 07:45:43;;;;;;;13.88;2.45;;;3.20;99.90;;;;;;7363368;19;20510;-64
2023/01/19 07:48:10;;;;;;;11.43;2.13;;;3.30;99.90;;;;;;7362067;19;20025;-63
2023/01/19 07:50:37;;;;;;;8.48;1.80;;;3.30;99.90;;;;;;7366930;19;20596;-64
2023/01/19 07:53:07;;;;;;;12.73;1.92;;;3.20;99.90;;;;;;7370037;19;20015;-64
2023/01/19 07:55:34;;;;;;;13.15;2.70;;;3.10;99.90;;;;;;7369023;19;20273;-64
2023/01/19 07:58:03;;;;;;;13.18;1.83;;;3.10;99.90;;;;;;7370930;19;20489;-64
2023/01/19 08:00:30;;;;;;;10.07;1.95;;;3.20;99.90;;;;;;7369338;19;20021;-63
2023/01/19 08:02:59;;;;;;;12.65;3.38;;;3.20;99.90;;;;;;7370865;19;20033;-67
2023/01/19 08:05:28;;;;;;;17.40;2.78;;;3.20;99.90;;;;;;7368456;19;20015;-66
2023/01/19 08:07:56;;;;;;;10.80;1.70;;;3.20;99.90;;;;;;7370311;19;20618;-67
2023/01/19 08:10:25;;;;;;;16.23;2.40;;;3.20;99.90;;;;;;7368740;19;20492;-67
2023/01/19 08:12:56;;;;;;;11.23;2.78;;;3.10;99.90;;;;;;7367869;19;20108;-66
2023/01/19 08:15:26;;;;;;;18.15;3.00;;;3.00;99.90;;;;;;7363717;19;20534;-67
2023/01/19 08:17:57;;;;;;;18.30;2.30;;;3.10;99.90;;;;;;7366201;19;20473;-67
2023/01/19 08:20:25;;;;;;;16.52;2.38;;;3.00;99.90;;;;;;7370103;19;20714;-67
2023/01/19 08:22:58;;;;;;;18.10;3.05;;;3.00;99.90;;;;;;7365881;19;20389;-67
2023/01/19 08:25:31;;;;;;;14.75;2.47;;;2.90;99.90;;;;;;7365055;19;20568;-67
2023/01/19 08:27:59;;;;;;;20.77;3.08;;;3.00;99.90;;;;;;7367347;19;21391;-61
2023/01/19 08:30:26;;;;;;;10.93;1.90;;;3.00;99.90;;;;;;7368879;19;20466;-61
2023/01/19 08:33:02;;;;;;;20.60;2.92;;;3.00;99.90;;;;;;7363914;19;20018;-67
2023/01/19 08:35:30;;;;;;;13.98;2.08;;;3.00;99.90;;;;;;7365756;19;20592;-67
2023/01/19 08:38:00;;;;;;;17.17;3.10;;;3.00;99.90;;;;;;7366243;19;20531;-67
2023/01/19 08:40:39;;;;;;;14.05;2.83;;;3.00;99.90;;;;;;7368853;19;20674;-67
2023/01/19 08:43:15;;;;;;;12.50;2.25;;;3.00;99.90;;;;;;7364867;19;20015;-67
2023/01/19 08:45:48;;;;;;;18.20;3.53;;;3.00;99.90;;;;;;7366666;19;20361;-68
2023/01/19 08:48:18;;;;;;;15.38;2.67;;;3.10;99.90;;;;;;7366386;19;20065;-69
2023/01/19 08:50:46;;;;;;;15.57;3.28;;;3.10;99.90;;;;;;7369264;19;20522;-67
2023/01/19 08:53:13;;;;;;;16.85;2.72;;;3.30;99.90;;;;;;7364567;19;20058;-67
2023/01/19 08:55:40;;;;;;;15.57;2.63;;;3.40;99.90;;;;;;7369669;19;20461;-67
2023/01/19 08:58:09;;;;;;;14.15;2.55;;;3.50;99.90;;;;;;7362496;19;20529;-67
2023/01/19 09:00:37;;;;;;;20.65;3.20;;;3.50;99.90;;;;;;7364359;19;20061;-65
2023/01/19 09:03:06;;;;;;;14.63;2.70;;;3.70;99.90;;;;;;7374444;19;20841;-67
2023/01/19 09:05:37;;;;;;;22.40;2.83;;;3.60;99.90;;;;;;7367499;19;20022;-67
2023/01/19 09:08:07;;;;;;;15.60;2.83;;;3.60;99.90;;;;;;7366879;19;20372;-67
2023/01/19 09:10:38;;;;;;;13.15;3.65;;;3.60;99.90;;;;;;7366402;19;20461;-67
2023/01/19 09:13:09;;;;;;;15.05;2.65;;;3.60;99.90;;;;;;7367995;19;20228;-67
2023/01/19 09:15:38;;;;;;;20.73;4.20;;;3.60;99.90;;;;;;7365029;19;20130;-67
2023/01/19 09:18:10;;;;;;;13.00;2.17;;;3.60;99.90;;;;;;7364875;19;20382;-67
2023/01/19 09:20:43;;;;;;;13.32;2.88;;;3.60;99.90;;;;;;7367686;19;20402;-67
2023/01/19 09:23:11;;;;;;;20.35;4.10;;;3.50;99.90;;;;;;7361245;19;20014;-60
2023/01/19 09:25:38;;;;;;;15.57;2.92;;;3.50;99.90;;;;;;7362470;19;20493;-60
2023/01/19 09:28:07;;;;;;;12.63;2.78;;;3.40;99.90;;;;;;7366789;19;20528;-60
2023/01/19 09:30:39;;;;;;;14.35;3.47;;;3.40;99.90;;;;;;7364724;19;20029;-60
2023/01/19 09:33:09;;;;;;;13.20;3.03;;;3.40;99.90;;;;;;7366288;19;20018;-60
2023/01/19 09:35:40;;;;;;;15.13;3.55;;;3.30;99.90;;;;;;7361786;19;20019;-62
2023/01/19 09:38:09;;;;;;;13.07;2.50;;;3.40;99.90;;;;;;7370449;19;20569;-61
2023/01/19 09:40:41;;;;;;;8.98;2.60;;;3.40;99.90;;;;;;7369482;19;20113;-60
2023/01/19 09:43:13;;;;;;;12.20;2.38;;;3.50;99.90;;;;;;7367159;19;20015;-61
2023/01/19 09:45:52;;;;;;;17.95;2.70;;;3.70;99.90;;;;;;7365984;19;20018;-68
2023/01/19 09:48:28;;;;;;;15.40;3.63;;;4.00;99.90;;;;;;7367241;19;20024;-60
2023/01/19 09:51:06;;;;;;;15.57;2.75;;;4.40;99.90;;;;;;7364343;19;20025;-60
2023/01/19 09:53:39;;;;;;;11.13;2.47;;;4.80;99.90;;;;;;7370736;19;20017;-61
2023/01/19 09:56:12;;;;;;;12.18;2.05;;;5.30;99.90;;;;;;7365849;19;20117;-61
2023/01/19 09:58:43;;;;;;;14.82;2.50;;;5.90;99.90;;;;;;7369090;19;20022;-68
2023/01/19 10:01:25;;;;;;;9.88;2.25;;;6.20;99.90;;;;;;7368614;19;20030;-68
2023/01/19 10:04:06;;;;;;;11.70;2.47;;;6.80;99.90;;;;;;7368740;19;20596;-68
2023/01/19 10:06:33;;;;;;;9.95;2.13;;;6.90;99.90;;;;;;7369504;19;20022;-68
2023/01/19 10:09:19;;;;;;;14.85;2.97;;;7.30;99.90;;;;;;7373224;19;20018;-68
2023/01/19 10:11:53;;;;;;;12.45;2.67;;;7.90;99.90;;;;;;7375298;19;20018;-68
2023/01/19 10:14:57;;;;;;;8.80;2.15;;;7.50;99.90;;;;;;7367634;19;20126;-69
2023/01/19 10:17:59;;;;;;;12.77;2.45;;;7.60;99.90;;;;;;7374703;19;20017;-68
2023/01/19 10:20:32;;;;;;;14.10;2.78;;;7.30;99.90;;;;;;7372788;19;20476;-69
2023/01/19 10:23:12;;;;;;;13.02;3.13;;;7.10;99.90;;;;;;7371719;19;20023;-69
2023/01/19 10:25:39;;;;;;;11.80;2.38;;;7.10;99.90;;;;;;7372368;19;20018;-69
2023/01/19 10:28:07;;;;;;;14.18;2.30;;;7.00;99.90;;;;;;7371595;19;20018;-69
2023/01/19 10:30:34;;;;;;;17.60;2.72;;;6.90;99.90;;;;;;7372640;19;20022;-68
2023/01/19 10:33:04;;;;;;;11.30;2.80;;;7.00;99.90;;;;;;7370597;19;20247;-69
2023/01/19 10:35:34;;;;;;;14.90;2.08;;;7.00;99.90;;;;;;7371377;19;20015;-69
2023/01/19 10:38:01;;;;;;;9.02;2.33;;;7.10;99.90;;;;;;7370933;19;20022;-69
2023/01/19 10:40:54;;;;;;;14.30;2.47;;;7.60;99.90;;;;;;7370142;19;20026;-69
2023/01/19 10:43:33;;;;;;;13.45;2.53;;;8.10;99.90;;;;;;7368190;19;20018;-69
2023/01/19 10:46:04;;;;;;;11.35;2.15;;;8.40;99.90;;;;;;7372436;19;20453;-70
2023/01/19 10:48:50;;;;;;;12.52;2.30;;;8.20;99.90;;;;;;7367542;19;20014;-69
2023/01/19 10:51:18;;;;;;;15.27;2.88;;;8.10;99.90;;;;;;7368298;19;20106;-70
2023/01/19 10:53:57;;;;;;;14.32;3.30;;;8.10;99.90;;;;;;7368127;19;20519;-69
2023/01/19 10:56:34;;;;;;;12.30;2.45;;;7.90;99.90;;;;;;7372637;19;20019;-69
2023/01/19 10:59:02;;;;;;;14.82;2.35;;;7.70;99.90;;;;;;7367663;19;20022;-69
2023/01/19 11:01:34;;;;;;;9.00;2.28;;;7.60;99.90;;;;;;7372516;19;20481;-69
2023/01/19 11:04:18;;;;;;;;;;;7.60;99.90;;;;;;7370351;19;20018;-60
2023/01/19 11:06:45;;;;;;;14.68;2.70;;;7.60;99.90;;;;;;7370279;19;19997;-69
2023/01/19 11:09:20;;;;;;;15.77;2.60;;;8.40;99.90;;;;;;7370883;19;20097;-60
2023/01/19 11:11:52;;;;;;;7.30;1.83;;;8.60;99.90;;;;;;7368764;19;20036;-63
2023/01/19 11:14:24;;;;;;;9.13;1.90;;;8.80;99.90;;;;;;7365982;19;20026;-70
2023/01/19 11:16:53;;;;;;;11.75;2.40;;;9.10;99.90;;;;;;7366564;19;20481;-70
2023/01/19 11:19:29;;;;;;;13.35;2.38;;;9.60;99.90;;;;;;7365207;19;20015;-70
2023/01/19 11:22:31;;;;;;;12.30;2.35;;;9.20;99.90;;;;;;7368260;19;20033;-60
2023/01/19 11:25:05;;;;;;;10.20;2.10;;;9.60;99.90;;;;;;7368139;19;21127;-69
2023/01/19 11:27:35;;;;;;;12.13;2.92;;;9.20;99.90;;;;;;7370297;19;20022;-69
2023/01/19 11:30:19;;;;;;;8.68;2.28;;;8.90;99.90;;;;;;7373989;19;20021;-69
2023/01/19 11:32:48;;;;;;;10.60;2.40;;;8.90;99.90;;;;;;7367415;19;20017;-69
2023/01/19 11:35:50;;;;;;;8.02;1.75;;;8.70;99.90;;;;;;7362200;19;20021;-70
2023/01/19 11:38:19;;;;;;;8.35;2.03;;;8.50;99.90;;;;;;7365963;19;20017;-69
2023/01/19 11:40:52;;;;;;;9.13;2.15;;;8.60;99.90;;;;;;7369141;19;20075;-69
2023/01/19 11:43:22;;;;;;;8.73;1.92;;;8.80;99.90;;;;;;7366863;19;20038;-68
2023/01/19 11:45:49;;;;;;;7.22;1.77;;;8.90;99.90;;;;;;7368915;19;20050;-69
2023/01/19 11:48:55;;;;;;;14.30;3.63;;;8.80;99.90;;;;;;7368452;19;20014;-66
2023/01/19 11:51:29;;;;;;;10.55;1.83;;;8.90;99.90;;;;;;7365640;19;20030;-70
2023/01/19 11:54:01;;;;;;;11.35;3.35;;;9.30;99.90;;;;;;7371156;19;20054;-59
2023/01/19 11:56:28;;;;;;;;;;;9.70;99.90;;;;;;7368957;19;20682;-68
2023/01/19 11:58:55;;;;;;;10.32;2.13;;;9.30;99.90;;;;;;7370845;19;19930;-68
2023/01/19 12:01:31;;;;;;;10.02;2.05;;;9.60;99.90;;;;;;7367828;19;20025;-68
2023/01/19 12:04:10;;;;;;;8.18;1.52;;;9.50;99.90;;;;;;7368257;19;20026;-59
2023/01/19 12:06:43;;;;;;;7.20;1.75;;;9.50;99.90;;;;;;7369108;19;20014;-59
2023/01/19 12:09:30;;;;;;;5.85;1.85;;;10.10;99.90;;;;;;7368180;19;20042;-68
2023/01/19 12:12:25;;;;;;;7.05;1.45;;;10.60;99.90;;;;;;7365852;19;20018;-68
2023/01/19 12:15:40;;;;;;;9.48;1.75;;;10.60;99.90;;;;;;7366451;19;20482;-69
2023/01/19 12:18:32;;;;;;;9.68;2.65;;;11.10;99.90;;;;;;7368273;19;20387;-59
2023/01/19 12:21:02;;;;;;;11.07;2.22;;;10.80;99.90;;;;;;7373341;19;20350;-59
2023/01/19 12:23:34;;;;;;;10.30;2.47;;;9.50;99.90;;;;;;7368678;19;20026;-59
2023/01/19 12:26:20;;;;;;;11.00;1.80;;;8.80;99.90;;;;;;7360423;19;20907;-59
2023/01/19 12:29:17;;;;;;;6.10;1.50;;;8.30;99.90;;;;;;7357764;19;20039;-58
2023/01/19 12:32:12;;;;;;;8.88;1.90;;;7.30;99.90;;;;;;7369568;19;20037;-58
2023/01/19 12:34:58;;;;;;;7.75;1.35;;;6.90;99.90;;;;;;7366379;19;20025;-58
2023/01/19 12:37:45;;;;;;;11.38;2.30;;;7.00;99.90;;;;;;7364933;19;20645;-70
2023/01/19 12:40:34;;;;;;;6.45;1.33;;;6.80;99.90;;;;;;7367414;19;20637;-69
2023/01/19 12:43:03;;;;;;;7.95;1.63;;;6.50;99.90;;;;;;7366383;19;20033;-68
2023/01/19 12:45:35;;;;;;;10.20;1.80;;;6.40;99.90;;;;;;7367070;19;20022;-68
2023/01/19 12:48:03;;;;;;;12.32;1.65;;;6.20;99.90;;;;;;7369593;19;20039;-68
2023/01/19 12:50:36;;;;;;;11.00;1.63;;;6.90;99.90;;;;;;7367889;19;20568;-68
2023/01/19 12:53:07;;;;;;;6.55;2.33;;;7.40;99.90;;;;;;7366593;19;20094;-68
2023/01/19 12:55:37;;;;;;;7.63;1.63;;;7.70;99.90;;;;;;7367736;19;20033;-68
2023/01/19 12:58:08;;;;;;;8.75;1.98;;;7.30;99.90;;;;;;7364138;19;20022;-59
2023/01/19 13:00:37;;;;;;;7.00;1.75;;;6.90;99.90;;;;;;7362613;19;20018;-59
2023/01/19 13:03:18;;;;;;;5.78;1.48;;;6.80;99.90;;;;;;7363209;19;20120;-68
2023/01/19 13:05:54;;;;;;;8.95;1.55;;;6.50;99.90;;;;;;7365567;19;20025;-68
2023/01/19 13:08:27;;;;;;;8.43;1.23;;;7.30;99.90;;;;;;7366703;19;20843;-68
2023/01/19 13:11:00;;;;;;;7.78;1.40;;;7.60;99.90;;;;;;7366552;19;20022;-68
2023/01/19 13:13:42;;;;;;;8.82;1.40;;;8.20;99.90;;;;;;7359018;19;20022;-60
2023/01/19 13:16:18;;;;;;;7.47;1.17;;;9.10;99.90;;;;;;7360288;19;20365;-69
2023/01/19 13:19:08;;;;;;;7.47;1.60;;;10.10;99.90;;;;;;7364199;19;20018;-68
2023/01/19 13:21:39;;;;;;;7.28;1.55;;;10.60;99.90;;;;;;7365320;19;20083;-59